createdAt,value
2023-11-18T00:03:18.800Z,100497.94
2023-11-18T00:07:27.194Z,100493.73
2023-11-18T00:11:35.816Z,100490.27
2023-11-18T00:15:44.109Z,100492.98
2023-11-18T00:19:52.559Z,100494.26
2023-11-18T00:24:00.880Z,100492.17
2023-11-18T00:28:10.419Z,100491.63
2023-11-18T00:32:19.122Z,100496.02
2023-11-18T00:36:27.879Z,100500.13
2023-11-18T00:40:36.695Z,100497.71
2023-11-18T00:44:45.093Z,100508.74
2023-11-18T00:48:52.967Z,100513.27
2023-11-18T00:53:01.346Z,100518.48
2023-11-18T00:57:10.976Z,100522.85
2023-11-18T01:01:19.651Z,100528.35
2023-11-18T01:05:28.004Z,100525.81
2023-11-18T01:09:40.352Z,100529.33
2023-11-18T01:13:49.268Z,100538.46
2023-11-18T01:17:57.255Z,100542.81
2023-11-18T01:22:07.535Z,100545.78
2023-11-18T01:26:16.558Z,100550.89
2023-11-18T01:30:25.542Z,100553.40
2023-11-18T01:34:35.690Z,100556.20
2023-11-18T01:38:43.632Z,100559.54
2023-11-18T01:42:51.927Z,100561.63
2023-11-18T01:47:02.015Z,100562.98
2023-11-18T01:51:13.366Z,100564.04
2023-11-18T01:55:23.048Z,100563.91
2023-11-18T01:59:34.838Z,100568.67
2023-11-18T02:03:44.117Z,100576.42
2023-11-18T02:07:53.244Z,100589.59
2023-11-18T02:12:06.887Z,100589.20
2023-11-18T02:16:15.852Z,100594.52
2023-11-18T02:20:25.173Z,100602.64
2023-11-18T02:24:38.079Z,100606.77
2023-11-18T02:28:46.437Z,100608.38
2023-11-18T02:32:58.006Z,100617.30
2023-11-18T02:37:07.869Z,100621.33
2023-11-18T02:41:17.521Z,100625.90
2023-11-18T02:45:29.022Z,100633.68
2023-11-18T02:49:38.902Z,100638.33
2023-11-18T02:53:46.586Z,100639.99
2023-11-18T02:57:55.134Z,100650.73
2023-11-18T03:02:03.418Z,100656.69
2023-11-18T03:06:12.586Z,100660.02
2023-11-18T03:10:23.727Z,100666.14
2023-11-18T03:14:31.709Z,100668.77
2023-11-18T03:18:39.761Z,100671.44
2023-11-18T03:22:47.589Z,100677.42
2023-11-18T03:26:55.625Z,100690.20
2023-11-18T03:31:03.784Z,100690.55
2023-11-18T03:35:12.599Z,100690.67
2023-11-18T03:39:22.659Z,100700.62
2023-11-18T03:43:30.795Z,100703.98
2023-11-18T03:47:39.003Z,100702.29
2023-11-18T03:51:47.021Z,100707.70
2023-11-18T03:55:56.040Z,100710.27
2023-11-18T04:00:04.632Z,100714.09
2023-11-18T04:04:14.209Z,100723.37
2023-11-18T04:08:22.941Z,100729.90
2023-11-18T04:12:31.904Z,100729.02
2023-11-18T04:16:40.441Z,100728.98
2023-11-18T04:20:51.614Z,100732.77
2023-11-18T04:25:00.991Z,100731.88
2023-11-18T04:29:08.930Z,100733.84
2023-11-18T04:33:17.194Z,100741.46
2023-11-18T04:37:25.717Z,100742.38
2023-11-18T04:41:34.131Z,100745.83
2023-11-18T04:45:41.676Z,100741.06
2023-11-18T04:49:51.265Z,100748.46
2023-11-18T04:53:59.637Z,100748.55
2023-11-18T04:58:10.677Z,100752.98
2023-11-18T05:02:18.489Z,100751.98
2023-11-18T05:06:27.267Z,100760.55
2023-11-18T05:10:36.101Z,100762.92
2023-11-18T05:14:43.826Z,100767.35
2023-11-18T05:18:53.263Z,100767.82
2023-11-18T05:23:02.174Z,100769.06
2023-11-18T05:27:10.815Z,100775.09
2023-11-18T05:31:21.326Z,100784.27
2023-11-18T05:35:30.202Z,100784.77
2023-11-18T05:39:44.275Z,100792.25
2023-11-18T05:43:53.686Z,100792.95
2023-11-18T05:48:05.187Z,100801.95
2023-11-18T05:52:14.369Z,100805.84
2023-11-18T05:56:24.700Z,100812.49
2023-11-18T06:00:39.152Z,100817.05
2023-11-18T06:04:51.787Z,100821.67
2023-11-18T06:09:06.157Z,100831.36
2023-11-18T06:13:14.153Z,100835.60
2023-11-18T06:17:23.160Z,100841.20
2023-11-18T06:21:33.080Z,100847.84
2023-11-18T06:25:42.458Z,100841.00
2023-11-18T06:29:55.858Z,100843.14
2023-11-18T06:34:05.331Z,100845.08
2023-11-18T06:38:14.487Z,100852.08
2023-11-18T06:42:25.028Z,100855.40
2023-11-18T06:46:35.772Z,100865.58
2023-11-18T06:50:45.610Z,100870.32
2023-11-18T06:54:54.786Z,100869.60
2023-11-18T06:59:05.262Z,100876.91
2023-11-18T07:03:13.852Z,100884.53
2023-11-18T07:07:23.108Z,100888.83
2023-11-18T07:11:34.007Z,100888.80
2023-11-18T07:15:42.927Z,100888.63
2023-11-18T07:19:51.000Z,100892.64
2023-11-18T07:23:59.763Z,100896.13
2023-11-18T07:28:11.544Z,100899.93
2023-11-18T07:32:21.344Z,100902.13
2023-11-18T07:36:29.396Z,100903.87
2023-11-18T07:40:39.298Z,100902.27
2023-11-18T07:44:49.354Z,100906.46
2023-11-18T07:48:58.149Z,100911.88
2023-11-18T07:53:07.743Z,100917.63
2023-11-18T07:57:16.322Z,100915.95
2023-11-18T08:01:24.308Z,100923.29
2023-11-18T08:05:33.063Z,100919.75
2023-11-18T08:09:40.876Z,100922.75
2023-11-18T08:13:48.617Z,100925.58
2023-11-18T08:17:56.896Z,100932.17
2023-11-18T08:22:07.331Z,100935.04
2023-11-18T08:26:16.958Z,100930.79
2023-11-18T08:30:26.514Z,100935.84
2023-11-18T08:34:36.223Z,100942.17
2023-11-18T08:38:49.336Z,100950.05
2023-11-18T08:42:59.851Z,100954.55
2023-11-18T08:47:14.052Z,100960.77
2023-11-18T08:51:27.364Z,100963.50
2023-11-18T08:55:43.913Z,100973.47
2023-11-18T08:59:52.338Z,100982.95
2023-11-18T09:04:03.117Z,100987.19
2023-11-18T09:08:13.882Z,100994.77
2023-11-18T09:12:21.512Z,100997.71
2023-11-18T09:16:31.110Z,100997.66
2023-11-18T09:20:41.044Z,100998.33
2023-11-18T09:24:50.925Z,101003.78
2023-11-18T09:28:59.641Z,101001.04
2023-11-18T09:33:15.362Z,101006.56
2023-11-18T09:37:24.796Z,101015.54
2023-11-18T09:41:35.109Z,101012.20
2023-11-18T09:45:49.681Z,101015.52
2023-11-18T09:50:01.282Z,101016.70
2023-11-18T09:54:16.328Z,101018.79
2023-11-18T09:58:25.993Z,101023.20
2023-11-18T10:02:34.892Z,101024.27
2023-11-18T10:06:43.891Z,101030.42
2023-11-18T10:10:53.007Z,101030.38
2023-11-18T10:15:00.826Z,101039.09
2023-11-18T10:19:10.609Z,101045.88
2023-11-18T10:23:22.471Z,101046.25
2023-11-18T10:27:33.199Z,101047.01
2023-11-18T10:31:46.334Z,101044.61
2023-11-18T10:35:57.056Z,101049.37
2023-11-18T10:40:14.389Z,101051.30
2023-11-18T10:44:25.270Z,101053.38
2023-11-18T10:48:33.238Z,101043.69
2023-11-18T10:52:42.808Z,101044.15
2023-11-18T10:56:57.967Z,101042.77
2023-11-18T11:01:08.094Z,101052.11
2023-11-18T11:05:21.204Z,101054.85
2023-11-18T11:09:30.032Z,101054.59
2023-11-18T11:13:39.462Z,101057.48
2023-11-18T11:18:03.687Z,101059.67
2023-11-18T11:22:17.086Z,101062.34
2023-11-18T11:26:31.274Z,101066.16
2023-11-18T11:30:46.466Z,101062.27
2023-11-18T11:34:58.875Z,101060.70
2023-11-18T11:39:11.685Z,101066.66
2023-11-18T11:43:22.969Z,101072.14
2023-11-18T11:47:37.843Z,101080.52
2023-11-18T11:51:50.292Z,101082.02
2023-11-18T11:56:07.391Z,101085.52
2023-11-18T12:00:21.324Z,101082.34
2023-11-18T12:04:30.257Z,101083.42
2023-11-18T12:08:41.536Z,101080.13
2023-11-18T12:12:49.946Z,101074.56
2023-11-18T12:17:09.907Z,101075.09
2023-11-18T12:21:54.748Z,101079.77
2023-11-18T12:26:06.232Z,101085.14
2023-11-18T12:30:53.502Z,101085.25
2023-11-18T12:35:02.137Z,101079.71
2023-11-18T12:39:52.124Z,101079.31
2023-11-18T12:44:19.111Z,101084.95
2023-11-18T12:48:29.165Z,101087.56
2023-11-18T12:52:36.929Z,101089.25
2023-11-18T12:56:49.800Z,101089.05
2023-11-18T13:00:57.635Z,101091.45
2023-11-18T13:05:11.379Z,101087.98
2023-11-18T13:09:27.691Z,101089.75
2023-11-18T13:13:37.820Z,101095.19
2023-11-18T13:17:46.268Z,101092.17
2023-11-18T13:21:56.203Z,101089.11
2023-11-18T13:26:06.986Z,101095.79
2023-11-18T13:30:18.680Z,101099.47
2023-11-18T13:34:27.263Z,101095.46
2023-11-18T13:38:36.102Z,101092.69
2023-11-18T13:42:44.080Z,101089.20
2023-11-18T13:46:52.202Z,101084.08
2023-11-18T13:51:00.448Z,101081.43
2023-11-18T13:55:10.393Z,101086.39
2023-11-18T13:59:19.803Z,101082.45
2023-11-18T14:03:28.861Z,101076.73
2023-11-18T14:07:41.821Z,101068.77
2023-11-18T14:11:51.372Z,101073.56
2023-11-18T14:15:59.378Z,101085.34
2023-11-18T14:20:13.878Z,101092.02
2023-11-18T14:24:24.386Z,101096.42
2023-11-18T14:28:32.630Z,101102.23
2023-11-18T14:32:41.640Z,101099.42
2023-11-18T14:36:50.363Z,101098.85
2023-11-18T14:41:00.129Z,101105.02
2023-11-18T14:45:11.320Z,101104.81
2023-11-18T14:49:19.671Z,101103.16
2023-11-18T14:53:27.619Z,101103.63
2023-11-18T14:57:37.056Z,101099.22
2023-11-18T15:01:45.644Z,101102.71
2023-11-18T15:05:53.512Z,101113.80
2023-11-18T15:10:05.227Z,101108.52
2023-11-18T15:14:16.722Z,101102.85
2023-11-18T15:18:24.902Z,101105.69
2023-11-18T15:22:33.334Z,101107.94
2023-11-18T15:26:40.984Z,101107.93
2023-11-18T15:30:50.206Z,101109.73
2023-11-18T15:35:00.557Z,101107.36
2023-11-18T15:39:08.966Z,101107.58
2023-11-18T15:43:17.250Z,101106.52
2023-11-18T15:47:26.213Z,101102.56
2023-11-18T15:51:34.381Z,101102.16
2023-11-18T15:55:45.107Z,101109.38
2023-11-18T15:59:53.161Z,101109.02
2023-11-18T16:04:02.721Z,101107.48
2023-11-18T16:08:11.557Z,101116.14
2023-11-18T16:12:19.174Z,101118.08
2023-11-18T16:16:28.541Z,101118.56
2023-11-18T16:20:36.410Z,101111.02
2023-11-18T16:24:44.315Z,101106.10
2023-11-18T16:28:51.859Z,101106.29
2023-11-18T16:33:00.822Z,101104.39
2023-11-18T16:37:12.675Z,101104.80
2023-11-18T16:41:23.173Z,101101.92
2023-11-18T16:45:31.768Z,101096.92
2023-11-18T16:49:41.703Z,101093.56
2023-11-18T16:53:50.860Z,101099.53
2023-11-18T16:57:59.227Z,101111.47
2023-11-18T17:02:11.809Z,101111.66
2023-11-18T17:06:21.470Z,101113.55
2023-11-18T17:10:29.293Z,101115.02
2023-11-18T17:14:37.375Z,101116.36
2023-11-18T17:18:45.067Z,101118.80
2023-11-18T17:22:53.227Z,101121.62
2023-11-18T17:27:04.988Z,101122.52
2023-11-18T17:31:13.156Z,101112.33
2023-11-18T17:35:21.911Z,101110.36
2023-11-18T17:39:30.275Z,101101.73
2023-11-18T17:43:40.643Z,101092.42
2023-11-18T17:47:48.862Z,101082.66
2023-11-18T17:51:57.515Z,101078.70
2023-11-18T17:56:06.814Z,101090.95
2023-11-18T18:00:21.863Z,101090.90
2023-11-18T18:04:30.149Z,101096.89
2023-11-18T18:08:37.574Z,101091.25
2023-11-18T18:12:48.418Z,101081.71
2023-11-18T18:16:58.347Z,101069.25
2023-11-18T18:21:10.638Z,101077.86
2023-11-18T18:25:19.654Z,101078.19
2023-11-18T18:29:28.877Z,101073.73
2023-11-18T18:33:39.554Z,101066.48
2023-11-18T18:37:47.930Z,101064.21
2023-11-18T18:41:55.832Z,101061.05
2023-11-18T18:46:04.883Z,101065.14
2023-11-18T18:50:15.332Z,101065.48
2023-11-18T18:54:24.409Z,101040.52
2023-11-18T18:58:33.185Z,101035.52
2023-11-18T19:02:41.426Z,101042.34
2023-11-18T19:06:50.827Z,101034.75
2023-11-18T19:10:59.021Z,101030.71
2023-11-18T19:15:09.149Z,101032.14
2023-11-18T19:19:19.958Z,101037.48
2023-11-18T19:23:29.002Z,101038.16
2023-11-18T19:27:43.740Z,101041.09
2023-11-18T19:31:53.465Z,101029.80
2023-11-18T19:36:01.713Z,101015.44
2023-11-18T19:40:12.464Z,101010.30
2023-11-18T19:44:20.316Z,100999.90
2023-11-18T19:48:32.057Z,100983.52
2023-11-18T19:52:40.617Z,100977.98
2023-11-18T19:56:50.917Z,100968.70
2023-11-18T20:00:59.143Z,100968.84
2023-11-18T20:05:12.838Z,100978.00
2023-11-18T20:09:23.008Z,100981.73
2023-11-18T20:13:31.525Z,100974.06
2023-11-18T20:17:39.525Z,100972.20
2023-11-18T20:21:47.576Z,100960.66
2023-11-18T20:25:55.661Z,100951.95
2023-11-18T20:30:06.210Z,100936.10
2023-11-18T20:34:16.151Z,100931.52
2023-11-18T20:38:24.292Z,100929.91
2023-11-18T20:42:32.392Z,100928.98
2023-11-18T20:46:41.244Z,100929.77
2023-11-18T20:50:52.566Z,100926.71
2023-11-18T20:55:01.149Z,100929.59
2023-11-18T20:59:10.337Z,100927.41
2023-11-18T21:03:19.074Z,100924.86
2023-11-18T21:07:30.371Z,100931.95
2023-11-18T21:11:39.836Z,100927.58
2023-11-18T21:15:47.508Z,100912.15
2023-11-18T21:19:55.897Z,100908.83
2023-11-18T21:24:06.445Z,100902.89
2023-11-18T21:28:14.330Z,100899.25
2023-11-18T21:32:23.256Z,100898.28
2023-11-18T21:36:32.704Z,100896.93
2023-11-18T21:40:40.528Z,100904.31
2023-11-18T21:44:48.588Z,100895.20
2023-11-18T21:48:56.924Z,100877.31
2023-11-18T21:53:08.779Z,100874.32
2023-11-18T21:57:18.598Z,100868.73
2023-11-18T22:01:26.598Z,100867.86
2023-11-18T22:05:34.465Z,100862.46
2023-11-18T22:09:42.316Z,100851.98
2023-11-18T22:13:50.729Z,100852.33
2023-11-18T22:17:59.785Z,100843.02
2023-11-18T22:22:08.304Z,100842.96
2023-11-18T22:26:16.374Z,100837.36
2023-11-18T22:30:25.353Z,100836.48
2023-11-18T22:34:33.782Z,100838.28
2023-11-18T22:38:42.581Z,100841.48
2023-11-18T22:42:53.301Z,100831.70
2023-11-18T22:47:04.081Z,100831.33
2023-11-18T22:51:12.438Z,100814.31
2023-11-18T22:55:21.267Z,100804.71
2023-11-18T22:59:29.401Z,100793.02
2023-11-18T23:03:37.941Z,100775.54
2023-11-18T23:07:46.479Z,100770.50
2023-11-18T23:11:55.370Z,100763.72
2023-11-18T23:16:04.942Z,100763.02
2023-11-18T23:20:13.816Z,100749.19
2023-11-18T23:24:21.998Z,100746.73
2023-11-18T23:28:29.598Z,100737.30
2023-11-18T23:32:37.497Z,100735.60
2023-11-18T23:36:45.318Z,100738.42
2023-11-18T23:40:53.195Z,100739.34
2023-11-18T23:45:05.806Z,100738.45
2023-11-18T23:49:14.180Z,100726.02
2023-11-18T23:53:22.796Z,100725.45
2023-11-18T23:57:31.821Z,100723.38
